ADDS METAR Data INFO
IDs: Format: Raw Decoded Include TAF

Data at: 0116 UTC 20 Feb 2018

KTEX 200115Z AUTO 28012G20KT 3/4SM SN OVC003 M07/M08 A2950 RMK AO2 T10661078
KTEX 200055Z AUTO 28017G25KT 3/4SM SN OVC005 M06/M07 A2949 RMK AO2 T10601074
KTEX 200035Z AUTO 27015G21KT 3/4SM -SN OVC005 M05/M06 A2945 RMK AO2 T10471062
KTEX 200015Z AUTO 26019G27KT 1/2SM -SN OVC005 M04/M06 A2943 RMK AO2 T10401056
KTEX 192355Z AUTO 27016G22KT 210V290 3/4SM -SN BKN003 OVC007 M03/M05 A2943 RMK AO2 60001 T10331053 10002 21033
KTEX 192335Z AUTO 27017G24KT 1/4SM -SN OVC001 M03/M04 A2941 RMK AO2 T10321045
KTEX 192315Z AUTO 23006KT 3/4SM -SN OVC004 M02/M04 A2943 RMK AO2 T10251041
KTEX 192255Z AUTO 23019G33KT 200V260 1/4SM +SN OVC004 M03/M04 A2940 RMK AO2 T10301043
KTEX 192235Z AUTO 23022G33KT 190V250 1/2SM SN OVC004 M02/M04 A2939 RMK AO2 T10251045
KTEX 192215Z AUTO 23015G30KT 200V270 1/4SM SN OVC004 M02/M05 A2939 RMK AO2 T10221046
KTEX 192155Z AUTO 24019G33KT 210V270 1/4SM -SN OVC002 M02/M04 A2939 RMK AO2 LTG DSNT SE T10211044
KTEX 192135Z AUTO 26005G19KT 1 1/4SM -SN BKN006 OVC015 M02/M04 A2941 RMK AO2 T10211037
KTEX 192115Z AUTO 00000KT 1/2SM -SN OVC004 M02/M04 A2938 RMK AO2 T10201042
KTEX 192055Z AUTO 28006G14KT 3SM -SN BKN013 BKN019 OVC033 M01/M06 A2939 RMK AO2 60001 T10091059
KTEX 192035Z AUTO 23010G19KT 1 1/2SM -SN BKN008 BKN018 OVC034 M01/M06 A2941 RMK AO2 T10091058
KTEX 192015Z AUTO 00000KT 7SM -SN SCT005 BKN028 OVC039 M01/M03 A2942 RMK AO2 T10091034
KTEX 191955Z AUTO 00000KT 1/2SM -SN BKN003 OVC008 M02/M04 A2943 RMK AO2 T10211036
KTEX 191935Z AUTO 21021G42KT 170V230 3/4SM -SN BKN003 BKN010 OVC015 M01/M05 A2944 RMK AO2 T10141048
KTEX 191915Z AUTO 23009G26KT 190V250 1 1/4SM -SN SCT010 BKN015 OVC023 M01/M05 A2944 RMK AO2 T10121051
KTEX 191855Z AUTO 25011G20KT 200V270 4SM -SN SCT014 BKN032 OVC050 00/M07 A2947 RMK AO2 P0001 T00001067
KTEX 191835Z AUTO 16007G19KT 090V180 2 1/2SM -SN SCT009 BKN021 OVC038 00/M06 A2947 RMK AO2 VIS 3/4V5 T10041056
KTEX 191815Z AUTO 24006G24KT 160V280 1SM -SN BKN005 OVC011 M01/M04 A2949 RMK AO2 T10101044
KTEX 191755Z AUTO 14005KT 1/2SM -SN OVC005 M02/M03 A2947 RMK AO2 T10201035 10000 21025
KTEX 191735Z AUTO 00000KT 1/2SM SN OVC005 M02/M04 A2949 RMK AO2 T10201041
KTEX 191715Z AUTO 12008KT 1 1/2SM -SN BKN011 BKN015 OVC023 M02/M04 A2949 RMK AO2 T10201041
KTEX 191655Z AUTO 00000KT 1 1/4SM -SN BKN009 OVC014 M02/M05 A2951 RMK AO2 T10221046
KTEX 191635Z AUTO 21005KT 1 1/2SM -SN BKN011 OVC019 M02/M05 A2952 RMK AO2 T10171054
KTEX 191615Z AUTO 17011G16KT 7SM SCT023 BKN033 OVC050 M01/M07 A2951 RMK AO2 T10101073
KTEX 191555Z AUTO 16013G22KT 5SM HZ SCT025 BKN038 OVC048 00/M08 A2953 RMK AO2 T10041085
KTEX 191535Z AUTO 20009G15KT 7SM -SN SCT027 BKN036 OVC042 M01/M07 A2956 RMK AO2 T10061074
KTEX 191515Z AUTO 19005G29KT 4SM -SN SCT013 BKN031 OVC048 M01/M07 A2955 RMK AO2 T10071071
KTEX 191455Z AUTO 17014G25KT 140V270 3SM -SN SCT026 BKN047 OVC050 M01/M07 A2955 RMK AO2 T10071072
KTEX 191435Z AUTO 19011G20KT 060V330 10SM SCT027 BKN055 OVC070 00/M09 A2955 RMK AO2 T00001090
KTEX 191415Z AUTO 17004G22KT 7SM -SN SCT021 BKN048 OVC060 00/M08 A2956 RMK AO2 T10021076
KTEX 191355Z AUTO 20004G24KT 5SM -SN SCT018 BKN045 OVC060 00/M07 A2955 RMK AO2 T10051068
KTEX 191335Z AUTO 20005G17KT 7SM -SN SCT017 BKN044 OVC070 M01/M06 A2956 RMK AO2 T10091061
KTEX 191315Z AUTO 20013G29KT 150V240 4SM -SN SCT010 BKN019 OVC048 M01/M05 A2956 RMK AO2 T10121053
KTEX 191255Z AUTO 15004KT 1 3/4SM -SN BKN006 OVC010 M02/M04 A2957 RMK AO2 T10201036
KTEX 191235Z AUTO 10004KT 4SM -SN SCT006 BKN015 OVC038 M02/M03 A2957 RMK AO2 T10231035
KTEX 191215Z AUTO 16005KT 1 1/4SM -SN BKN006 BKN023 OVC035 M02/M04 A2958 RMK AO2 T10191040
KTEX 191155Z AUTO 00000KT 4SM -SN SCT004 BKN010 OVC048 M02/M04 A2958 RMK AO2 T10191036 10018 21019
KTEX 191135Z AUTO 18008G14KT 150V210 1SM SN OVC004 M02/M03 A2960 RMK AO2 T10181034
KTEX 191115Z AUTO 16005G22KT 2 1/2SM -SN SCT006 BKN019 OVC034 M01/M04 A2959 RMK AO2 VIS 1 1/4V5 T10111041
KTEX 191055Z AUTO 22007G17KT 1 3/4SM -SN BKN007 OVC010 M01/M03 A2960 RMK AO2 T10151034
KTEX 191035Z AUTO 17005G15KT 2SM -SN BKN007 BKN024 OVC039 M01/M04 A2960 RMK AO2 T10101040
KTEX 191015Z AUTO 20009G24KT 170V230 3SM -SN SCT013 BKN020 OVC037 00/M05 A2960 RMK AO2 T10031051
KTEX 190955Z AUTO 19010G17KT 5SM -SN SCT013 BKN035 OVC044 00/M06 A2961 RMK AO2 T00001059
KTEX 190935Z AUTO 19015G21KT 4SM -SN SCT023 BKN034 OVC050 00/M06 A2961 RMK AO2 T00001059
KTEX 190915Z AUTO 18010G23KT 160V220 7SM -SN SCT020 BKN047 OVC080 00/M06 A2962 RMK AO2 T00011062
KTEX 190855Z AUTO 21018G23KT 160V230 7SM -SN SCT041 BKN050 OVC070 01/M07 A2962 RMK AO2 T00071070
KTEX 190835Z AUTO 19016G26KT 170V230 7SM -SN SCT039 BKN050 OVC060 01/M07 A2962 RMK AO2 T00081071
KTEX 190815Z AUTO 19015G31KT 160V230 4SM -SN SCT041 BKN050 OVC055 01/M07 A2961 RMK AO2 T00081069
KTEX 190755Z AUTO 20018G29KT 170V240 7SM SCT034 SCT048 OVC065 01/M08 A2961 RMK AO2 T00141076
KTEX 190735Z AUTO 19018G27KT 10SM BKN050 OVC060 02/M08 A2962 RMK AO2 T00171085
KTEX 190715Z AUTO 22010G19KT 10SM SCT018 BKN050 OVC065 01/M07 A2963 RMK AO2 T00121068
KTEX 190655Z AUTO 21007G24KT 180V250 4SM -SN SCT023 BKN047 OVC060 01/M06 A2964 RMK AO2 T00131062 400641008
KTEX 190635Z AUTO 26003KT 10SM -SN SCT025 BKN050 OVC060 01/M05 A2964 RMK AO2 T00071050
KTEX 190615Z AUTO 00000KT 7SM -SN SCT013 BKN034 OVC050 00/M04 A2965 RMK AO2 T00001036
KTEX 190555Z AUTO 19004KT 4SM -SN SCT016 BKN028 OVC050 01/M04 A2967 RMK AO2 T00051041 10040 20005
KTEX 190535Z AUTO 15015G25KT 7SM -SN SCT014 SCT027 BKN035 01/M05 A2966 RMK AO2 T00111052
KTEX 190515Z AUTO 17014G25KT 10SM SCT027 SCT034 BKN040 01/M06 A2966 RMK AO2 T00131060
KTEX 190455Z AUTO 14013G20KT 10SM SCT032 SCT038 SCT055 02/M07 A2967 RMK AO2 T00151067
KTEX 190435Z AUTO 10007G17KT 070V140 10SM SCT060 SCT075 02/M07 A2969 RMK AO2 T00171075
KTEX 190415Z AUTO 13004G18KT 10SM CLR 02/M08 A2970 RMK AO2 T00211078
KTEX 190355Z AUTO 20008G16KT 170V230 10SM SCT050 SCT070 02/M08 A2970 RMK AO2 T00221081
KTEX 190335Z AUTO 17004G09KT 10SM SCT050 BKN070 BKN080 02/M07 A2970 RMK AO2 T00201073
KTEX 190315Z AUTO 04005KT 10SM SCT048 BKN050 BKN070 01/M06 A2972 RMK AO2 T00141062
KTEX 190255Z AUTO 08007KT 10SM SCT041 BKN050 BKN070 01/M06 A2973 RMK AO2 T00101059
KTEX 190235Z AUTO 08004G17KT 10SM SCT032 SCT046 BKN070 02/M06 A2974 RMK AO2 T00151061
KTEX 190215Z AUTO 13012G25KT 10SM SCT034 SCT041 BKN049 02/M07 A2974 RMK AO2 T00211068
KTEX 190155Z AUTO 19009G17KT 180V250 10SM SCT049 SCT055 SCT075 03/M08 A2974 RMK AO2 T00251084
KTEX 190135Z AUTO 17004KT 10SM SCT060 03/M09 A2975 RMK AO2 T00271086
KTEX 190115Z AUTO 23007KT 130V260 10SM SCT060 SCT080 03/M09 A2975 RMK AO2 T00291089
KTEX 190055Z AUTO 15017G23KT 10SM SCT060 SCT075 SCT085 03/M09 A2974 RMK AO2 T00311091
KTEX 190035Z AUTO 15010G28KT 130V200 10SM SCT085 03/M09 A2975 RMK AO2 T00321086
KTEX 190015Z AUTO 16013G29KT 120V180 10SM CLR 04/M08 A2975 RMK AO2 T00351085
KTEX 182355Z AUTO 14014G26KT 10SM CLR 04/M09 A2975 RMK AO2 T00401090 10064 20040
KTEX 182335Z AUTO 18010G24KT 10SM SCT075 SCT085 05/M10 A2976 RMK AO2 T00451101
KTEX 182315Z AUTO 15009G20KT 10SM SCT075 SCT085 05/M11 A2976 RMK AO2 T00501109
KTEX 182255Z AUTO 16016G22KT 10SM BKN085 05/M11 A2976 RMK AO2 T00501111
KTEX 182235Z AUTO 18012G24KT 110V240 10SM BKN085 05/M11 A2977 RMK AO2 T00501113
KTEX 182215Z AUTO 18012G19KT 10SM BKN085 06/M12 A2978 RMK AO2 T00551119
KTEX 182155Z AUTO 18004KT 10SM SCT085 06/M12 A2979 RMK AO2 T00621119
KTEX 182135Z AUTO 19004KT 10SM CLR 06/M13 A2980 RMK AO2 T00571131
KTEX 182115Z AUTO 28008KT 210V310 10SM CLR 06/M13 A2980 RMK AO2 T00591126
KTEX 182055Z AUTO 23007KT 190V280 10SM CLR 06/M14 A2981 RMK AO2 T00601137
KTEX 182035Z AUTO 22003G16KT 10SM CLR 06/M14 A2982 RMK AO2 T00591138
KTEX 182015Z AUTO 25013G27KT 220V280 10SM CLR 06/M14 A2983 RMK AO2 T00571145
KTEX 181955Z AUTO 20018G32KT 190V280 10SM CLR 06/M15 A2984 RMK AO2 T00561150
KTEX 181935Z AUTO 24013G22KT 10SM CLR 05/M14 A2986 RMK AO2 T00541144
KTEX 181915Z AUTO 22015G29KT 10SM CLR 05/M15 A2986 RMK AO2 T00511147
KTEX 181855Z AUTO 22020G30KT 10SM CLR 05/M14 A2987 RMK AO2 T00511144
KTEX 181835Z AUTO 20013G27KT 160V240 10SM CLR 05/M14 A2988 RMK AO2 T00521137
KTEX 181815Z AUTO 21024G37KT 10SM CLR 05/M14 A2987 RMK AO2 T00521143
KTEX 181755Z AUTO 22015G22KT 180V240 10SM CLR 05/M14 A2990 RMK AO2 T00501140 10050 21008
KTEX 181735Z AUTO 13008KT 10SM CLR 04/M12 A2991 RMK AO2 T00401119
KTEX 181715Z AUTO 13006KT 10SM CLR 04/M12 A2993 RMK AO2 T00391117
KTEX 181655Z AUTO 14005KT 10SM CLR 04/M11 A2993 RMK AO2 T00351115
KTEX 181635Z AUTO 14003KT 10SM CLR 03/M11 A2995 RMK AO2 T00311110
KTEX 181615Z AUTO 10004KT 10SM CLR 03/M11 A2995 RMK AO2 T00281106
KTEX 181555Z AUTO 11005KT 10SM CLR 02/M10 A2995 RMK AO2 T00241104
KTEX 181535Z AUTO 07003KT 10SM CLR 02/M11 A2995 RMK AO2 T00211107
KTEX 181515Z AUTO 04003KT 10SM CLR 02/M11 A2995 RMK AO2 T00211115
KTEX 181455Z AUTO 00000KT 10SM CLR 01/M12 A2995 RMK AO2 T00141117
KTEX 181435Z AUTO 03003KT 10SM CLR 00/M12 A2993 RMK AO2 T00031122
KTEX 181415Z AUTO 08003KT 10SM CLR 00/M13 A2993 RMK AO2 T00011128
KTEX 181355Z AUTO 00000KT 10SM CLR 00/M13 A2993 RMK AO2 T00011128
KTEX 181335Z AUTO 02004KT 10SM CLR 00/M14 A2994 RMK AO2 T00001136